Time;durP1;ratioP1;P1;durP2;ratioP2;P2;SDS_P1;SDS_P2;PMS_P1;PMS_P2;Temp;Humidity;BMP_temperature;BMP_pressure;BME280_temperature;BME280_humidity;BME280_pressure;Samples;Min_cycle;Max_cycle;Signal;HPM_P1;HPM_P2
2021/12/15 00:00:28;;;;;;;48.97;22.77;;;;;;;-0.12;78.21;95401.03;5073043;28;20036;-75
2021/12/15 00:02:54;;;;;;;49.13;22.25;;;;;;;0.03;78.54;95410.78;5091102;28;20024;-75
2021/12/15 00:05:22;;;;;;;44.72;21.10;;;;;;;-0.14;77.80;95403.66;5090908;28;20024;-75
2021/12/15 00:07:59;;;;;;;44.20;20.63;;;;;;;-0.04;77.23;95412.66;5089967;28;20036;-74
2021/12/15 00:10:25;;;;;;;47.08;22.30;;;;;;;-0.22;77.81;95408.16;5074991;28;20044;-75
2021/12/15 00:12:51;;;;;;;44.13;20.17;;;;;;;-0.23;78.08;95398.81;5074355;28;20410;-75
2021/12/15 00:15:17;;;;;;;42.17;20.00;;;;;;;-0.13;77.45;95407.84;5074100;28;20028;-75
2021/12/15 00:17:42;;;;;;;46.33;21.80;;;;;;;0.02;78.52;95409.06;5058791;28;20033;-74
2021/12/15 00:20:10;;;;;;;42.90;20.25;;;;;;;0.14;77.62;95411.25;5071794;28;20036;-75
2021/12/15 00:22:37;;;;;;;41.47;19.33;;;;;;;-0.02;76.32;95405.78;5070855;28;20529;-74
2021/12/15 00:25:05;;;;;;;47.58;20.88;;;;;;;-0.14;77.28;95411.31;5070438;28;20453;-75
2021/12/15 00:27:31;;;;;;;49.70;22.35;;;;;;;-0.19;77.84;95417.44;5053998;28;20064;-74
2021/12/15 00:29:56;;;;;;;51.97;22.45;;;;;;;-0.14;78.33;95428.31;5070361;28;20071;-74
2021/12/15 00:32:22;;;;;;;49.38;22.48;;;;;;;-0.27;78.52;95423.59;5053855;28;20416;-75
2021/12/15 00:34:49;;;;;;;42.40;20.60;;;;;;;-0.31;79.00;95414.34;5053494;28;20032;-75
2021/12/15 00:37:14;;;;;;;44.03;21.00;;;;;;;-0.26;78.59;95414.22;5037615;28;20052;-74
2021/12/15 00:39:40;;;;;;;42.78;20.13;;;;;;;-0.19;79.09;95420.00;5070517;28;20047;-74
2021/12/15 00:42:05;;;;;;;45.08;21.85;;;;;;;-0.10;78.39;95420.53;5071924;28;20025;-74
2021/12/15 00:44:31;;;;;;;36.42;19.10;;;;;;;0.02;78.09;95413.34;5053665;28;20036;-75
2021/12/15 00:46:56;;;;;;;43.72;20.45;;;;;;;-0.10;77.07;95386.50;5037051;28;20056;-75
2021/12/15 00:49:22;;;;;;;39.75;19.42;;;;;;;0.08;77.12;95408.88;5071582;28;20410;-75
2021/12/15 00:51:48;;;;;;;39.35;18.98;;;;;;;0.07;76.28;95408.94;5070294;28;20037;-75
2021/12/15 00:54:13;;;;;;;43.38;20.15;;;;;;;-0.21;78.66;95409.81;5071376;28;20036;-75
2021/12/15 00:56:39;;;;;;;40.58;19.13;;;;;;;-0.18;78.34;95406.34;5037075;28;20185;-75
2021/12/15 00:59:05;;;;;;;40.17;18.98;;;;;;;-0.10;77.65;95412.88;5053554;28;20411;-75
2021/12/15 01:01:31;;;;;;;40.72;18.33;;;;;;;-0.11;77.28;95402.69;5071351;28;20559;-74
2021/12/15 01:03:56;;;;;;;42.50;19.90;;;;;;;-0.09;77.24;95406.84;5053426;28;20028;-75
2021/12/15 01:06:22;;;;;;;41.20;19.40;;;;;;;-0.42;79.37;95413.03;5071268;28;20062;-75
2021/12/15 01:08:53;;;;;;;48.03;19.67;;;;;;;-0.27;77.79;95407.47;5070124;28;20027;-75
2021/12/15 01:11:44;;;;;;;;;;;;;;;-0.34;77.97;95411.06;5070552;28;20039;-75
2021/12/15 01:19:58;;;;;;;35.42;17.10;;;;;;;-0.32;78.42;95394.00;5069299;28;20039;-75
2021/12/15 01:22:32;;;;;;;38.35;17.42;;;;;;;-0.33;77.11;95388.06;5069845;28;20559;-75
2021/12/15 01:25:20;;;;;;;33.08;15.70;;;;;;;-0.20;76.88;95388.50;5069931;28;20028;-75
2021/12/15 01:27:45;;;;;;;34.70;15.75;;;;;;;-0.07;77.49;95399.16;5069981;28;20042;-75
2021/12/15 01:30:13;;;;;;;36.38;15.55;;;;;;;0.01;76.56;95398.94;5069823;28;20120;-75
2021/12/15 01:32:38;;;;;;;35.15;16.75;;;;;;;-0.05;75.43;95390.56;5070103;28;20040;-75
2021/12/15 01:35:04;;;;;;;37.95;17.38;;;;;;;0.04;75.04;95406.50;5069894;28;20047;-75
2021/12/15 01:37:29;;;;;;;34.10;16.15;;;;;;;0.07;75.84;95388.50;5070994;28;20447;-75
2021/12/15 01:39:56;;;;;;;37.17;16.65;;;;;;;0.00;76.04;95405.75;5069961;28;20025;-75
2021/12/15 01:42:24;;;;;;;38.25;18.88;;;;;;;-0.26;77.18;95409.13;5053126;28;20032;-75
2021/12/15 01:47:34;;;;;;;34.60;16.67;;;;;;;-0.46;76.85;95392.69;5071308;28;20416;-74
2021/12/15 01:49:59;;;;;;;35.60;16.33;;;;;;;-0.29;76.42;95399.00;5069725;28;20471;-74
2021/12/15 01:52:27;;;;;;;35.72;16.85;;;;;;;-0.19;76.25;95394.47;5071095;28;20422;-74
2021/12/15 01:54:55;;;;;;;35.97;17.05;;;;;;;-0.32;76.40;95388.88;5069433;28;20082;-74
2021/12/15 01:57:22;;;;;;;34.08;16.38;;;;;;;-0.37;77.56;95390.75;5069616;28;20060;-74
2021/12/15 01:59:48;;;;;;;45.65;19.52;;;;;;;-0.36;77.25;95400.91;5069391;28;20411;-74
2021/12/15 02:02:14;;;;;;;40.88;18.67;;;;;;;-0.27;77.10;95392.13;5069546;28;20033;-74
2021/12/15 02:04:39;;;;;;;36.25;18.17;;;;;;;-0.20;76.81;95377.44;5070808;28;20115;-75
2021/12/15 02:07:07;;;;;;;36.92;17.75;;;;;;;-0.14;76.76;95387.47;5052842;28;20124;-74
2021/12/15 02:10:01;;;;;;;33.83;16.23;;;;;;;-0.16;75.90;95384.13;5069003;28;20517;-75
2021/12/15 02:12:21;;;;;;;38.08;18.83;;;;;;;-0.25;75.79;95395.50;5068973;28;20090;-74
2021/12/15 02:14:46;;;;;;;43.15;18.73;;;;;;;-0.20;76.09;95390.22;5036969;28;20039;-74
2021/12/15 02:17:12;;;;;;;34.63;16.92;;;;;;;-0.14;75.34;95395.97;5081646;28;20028;-75
2021/12/15 02:19:37;;;;;;;40.03;17.33;;;;;;;-0.14;75.54;95384.91;5089723;28;20031;-75
2021/12/15 02:22:03;;;;;;;36.92;18.25;;;;;;;-0.01;75.33;95396.41;5072666;28;20090;-74
2021/12/15 02:24:29;;;;;;;36.53;17.77;;;;;;;0.04;75.66;95398.81;5090684;28;20093;-75
2021/12/15 02:26:59;;;;;;;33.90;17.42;;;;;;;0.07;75.13;95399.56;5089416;28;20032;-75
2021/12/15 02:29:25;;;;;;;36.25;17.40;;;;;;;0.06;75.18;95400.44;5089519;28;20069;-74
2021/12/15 02:39:30;;;;;;;31.65;15.77;;;;;;;0.08;73.58;95391.00;5093379;28;20028;-74
2021/12/15 02:41:56;;;;;;;34.33;16.27;;;;;;;0.02;73.96;95382.69;5093065;28;20040;-74
2021/12/15 02:44:22;;;;;;;33.30;14.95;;;;;;;0.06;73.45;95394.50;5092928;28;20497;-75
2021/12/15 02:46:47;;;;;;;35.60;16.25;;;;;;;-0.10;74.57;95387.31;5075973;28;20042;-75
2021/12/15 02:49:15;;;;;;;35.50;16.52;;;;;;;-0.01;74.21;95393.84;5094016;28;20470;-75
2021/12/15 02:51:41;;;;;;;33.85;15.85;;;;;;;-0.19;74.75;95391.91;5076093;28;20032;-74
2021/12/15 02:54:07;;;;;;;35.15;17.67;;;;;;;-0.16;74.82;95379.03;5092835;28;20036;-75
2021/12/15 02:56:33;;;;;;;31.20;16.20;;;;;;;-0.15;73.90;95368.75;5092807;28;20058;-75
2021/12/15 02:59:00;;;;;;;33.65;16.02;;;;;;;-0.07;73.55;95381.28;5076105;28;20074;-75
2021/12/15 03:01:36;;;;;;;35.28;16.25;;;;;;;-0.03;73.72;95386.25;5093754;28;20020;-75
2021/12/15 03:04:48;;;;;;;35.88;16.25;;;;;;;-0.02;73.53;95393.03;5077281;28;20118;-75
2021/12/15 03:06:57;;;;;;;34.95;15.30;;;;;;;-0.07;73.35;95396.63;5070951;28;20048;-75
2021/12/15 03:17:34;;;;;;;33.70;16.60;;;;;;;-0.08;73.72;95398.34;5078888;28;20081;-75
2021/12/15 03:20:00;;;;;;;37.60;16.65;;;;;;;-0.08;73.59;95400.88;5072221;28;20036;-75
2021/12/15 03:22:25;;;;;;;33.53;15.65;;;;;;;-0.19;73.82;95392.72;5072159;28;20020;-75
2021/12/15 03:24:51;;;;;;;31.92;15.07;;;;;;;-0.17;72.84;95392.66;5038581;28;20119;-75
2021/12/15 03:27:22;;;;;;;31.23;15.00;;;;;;;-0.24;72.25;95400.53;5072185;28;20032;-75
2021/12/15 03:35:33;;;;;;;31.17;14.23;;;;;;;-0.18;71.88;95402.06;5073141;28;20093;-74
2021/12/15 03:37:59;;;;;;;32.92;15.70;;;;;;;-0.18;72.86;95406.34;5072193;28;20170;-75
2021/12/15 03:40:40;;;;;;;27.33;14.32;;;;;;;-0.22;72.58;95403.06;5071756;28;20041;-74
2021/12/15 03:43:11;;;;;;;30.50;14.77;;;;;;;-0.16;72.33;95400.28;5070837;28;20025;-75
2021/12/15 03:45:39;;;;;;;29.92;14.73;;;;;;;-0.18;71.90;95386.72;5071663;28;20304;-75
2021/12/15 03:48:08;;;;;;;29.95;13.82;;;;;;;-0.14;71.99;95395.97;5071799;28;20518;-75
2021/12/15 03:50:34;;;;;;;37.17;15.00;;;;;;;-0.20;73.06;95385.94;5071429;28;20040;-75
2021/12/15 03:53:00;;;;;;;27.27;14.13;;;;;;;-0.18;72.59;95402.06;5071828;28;20024;-75
2021/12/15 03:55:30;;;;;;;28.60;12.82;;;;;;;-0.07;71.36;95406.81;5037926;28;20166;-75
2021/12/15 03:57:56;;;;;;;24.35;12.95;;;;;;;-0.08;71.93;95408.56;5038590;28;20035;-75
2021/12/15 04:00:22;;;;;;;25.67;12.35;;;;;;;-0.10;71.58;95415.41;5055017;28;20028;-75
2021/12/15 04:02:47;;;;;;;24.67;12.73;;;;;;;-0.14;72.25;95413.84;5071597;28;20123;-75
2021/12/15 04:05:14;;;;;;;25.75;14.40;;;;;;;-0.14;71.93;95420.66;5037815;28;20031;-75
2021/12/15 04:07:39;;;;;;;27.40;12.93;;;;;;;-0.17;71.86;95428.41;5071315;28;20085;-75
2021/12/15 04:10:06;;;;;;;26.35;13.23;;;;;;;-0.20;73.21;95416.59;5071031;28;20041;-74
2021/12/15 04:12:31;;;;;;;30.65;17.27;;;;;;;-0.15;72.66;95427.50;5072485;28;20036;-75
2021/12/15 04:15:18;;;;;;;37.50;22.27;;;;;;;-0.14;71.98;95441.09;5070903;28;20025;-75
2021/12/15 04:17:42;;;;;;;38.88;20.27;;;;;;;-0.08;71.60;95440.94;5086235;28;20043;-75
2021/12/15 04:20:10;;;;;;;35.40;18.88;;;;;;;-0.04;71.73;95445.88;5091594;28;20028;-75
2021/12/15 04:22:36;;;;;;;35.28;19.13;;;;;;;-0.07;72.26;95435.75;5074693;28;20036;-75
2021/12/15 04:25:08;;;;;;;32.38;17.63;;;;;;;0.01;71.70;95439.81;5074107;28;20020;-75
2021/12/15 04:27:33;;;;;;;29.17;13.65;;;;;;;-0.02;71.78;95446.66;5074664;28;20504;-75
2021/12/15 04:29:59;;;;;;;30.60;16.45;;;;;;;-0.06;71.44;95434.84;5074171;28;20050;-75
2021/12/15 04:32:40;;;;;;;29.60;14.95;;;;;;;-0.03;71.17;95442.47;5057491;28;20048;-75
2021/12/15 04:35:07;;;;;;;34.00;18.65;;;;;;;-0.18;71.36;95442.91;5075883;28;20074;-75
2021/12/15 04:37:32;;;;;;;30.48;15.48;;;;;;;-0.13;70.93;95441.06;5090944;28;20061;-75
2021/12/15 04:39:58;;;;;;;33.05;16.02;;;;;;;-0.19;71.69;95430.22;5074119;28;20031;-75
2021/12/15 04:42:25;;;;;;;33.92;15.55;;;;;;;-0.15;70.81;95442.00;5090954;28;20494;-75
2021/12/15 04:44:52;;;;;;;30.73;15.63;;;;;;;-0.18;71.77;95436.97;5090606;28;20397;-75
2021/12/15 04:47:17;;;;;;;32.55;15.65;;;;;;;-0.12;71.02;95457.22;5090639;28;20413;-75
2021/12/15 04:49:47;;;;;;;32.55;16.20;;;;;;;-0.14;71.27;95448.75;5090497;28;20028;-75
2021/12/15 04:52:14;;;;;;;32.13;15.73;;;;;;;-0.26;70.74;95440.59;5090918;28;20630;-75
2021/12/15 04:54:39;;;;;;;29.00;15.57;;;;;;;-0.19;71.34;95451.47;5090416;28;20035;-75
2021/12/15 04:57:05;;;;;;;29.27;14.43;;;;;;;-0.22;71.21;95454.13;5073497;28;20056;-75
2021/12/15 04:59:31;;;;;;;27.67;14.63;;;;;;;-0.32;70.63;95429.75;5091652;28;20024;-75
2021/12/15 05:01:56;;;;;;;31.10;14.25;;;;;;;-0.24;70.65;95453.31;5073346;28;20062;-75
2021/12/15 05:04:22;;;;;;;26.95;13.27;;;;;;;-0.24;70.51;95461.81;5073639;28;20051;-75
2021/12/15 05:06:47;;;;;;;24.95;12.68;;;;;;;-0.19;69.43;95445.53;5091485;28;20067;-75
2021/12/15 05:09:14;;;;;;;25.77;13.63;;;;;;;-0.17;69.54;95464.19;5090467;28;20058;-75
2021/12/15 05:11:39;;;;;;;29.40;15.10;;;;;;;-0.27;70.59;95458.53;5090273;28;20040;-75
2021/12/15 05:14:05;;;;;;;30.40;14.50;;;;;;;-0.28;69.82;95459.41;5090275;28;20027;-75
2021/12/15 05:16:30;;;;;;;27.88;14.10;;;;;;;-0.33;69.94;95443.41;5084073;28;20456;-75
2021/12/15 05:18:56;;;;;;;30.25;17.35;;;;;;;-0.27;69.75;95453.41;5036813;28;20074;-75
2021/12/15 05:21:23;;;;;;;29.80;15.20;;;;;;;-0.37;70.74;95455.41;5060133;28;20016;-75
2021/12/15 05:23:54;;;;;;;30.45;14.43;;;;;;;-0.30;70.46;95463.72;5090089;28;20107;-75
2021/12/15 05:26:20;;;;;;;31.67;15.80;;;;;;;-0.23;70.81;95460.09;5074057;28;20482;-75
2021/12/15 05:28:45;;;;;;;36.28;19.25;;;;;;;-0.22;70.99;95466.88;5089869;28;20085;-75
2021/12/15 05:31:11;;;;;;;37.03;19.98;;;;;;;-0.12;69.84;95467.44;5056305;28;20478;-75
2021/12/15 05:33:36;;;;;;;29.92;16.13;;;;;;;-0.14;69.78;95474.28;5082407;28;20025;-74
2021/12/15 05:36:02;;;;;;;28.08;14.90;;;;;;;-0.16;70.58;95468.44;5059845;28;20017;-75
2021/12/15 05:38:27;;;;;;;32.15;15.95;;;;;;;-0.16;71.06;95473.53;5067753;28;20055;-75
2021/12/15 05:40:53;;;;;;;30.83;15.82;;;;;;;-0.15;70.96;95465.81;5053100;28;20025;-75
2021/12/15 05:43:18;;;;;;;31.55;17.30;;;;;;;-0.11;70.53;95476.75;5069984;28;20032;-75
2021/12/15 05:45:44;;;;;;;30.48;15.77;;;;;;;-0.09;69.99;95472.44;5071450;28;20181;-75
2021/12/15 05:48:12;;;;;;;28.90;14.88;;;;;;;-0.07;70.62;95476.63;5069757;28;20563;-75
2021/12/15 05:50:38;;;;;;;31.40;14.70;;;;;;;-0.19;69.85;95460.84;5069556;28;20024;-75
2021/12/15 05:53:03;;;;;;;30.23;15.55;;;;;;;-0.06;69.94;95472.34;5069910;28;20033;-75
2021/12/15 05:55:29;;;;;;;34.85;16.98;;;;;;;-0.21;70.31;95481.31;5084772;28;20044;-75
2021/12/15 05:57:54;;;;;;;31.08;15.68;;;;;;;-0.14;69.94;95475.16;5073115;28;20036;-75
2021/12/15 06:00:25;;;;;;;33.80;17.35;;;;;;;-0.14;69.94;95477.72;5071205;28;20036;-75
2021/12/15 06:02:52;;;;;;;28.58;15.25;;;;;;;-0.22;70.32;95477.09;5073719;28;20044;-75
2021/12/15 06:05:17;;;;;;;28.58;14.60;;;;;;;-0.30;69.99;95479.88;5089048;28;20030;-75
2021/12/15 06:07:43;;;;;;;26.15;14.05;;;;;;;-0.34;70.10;95480.00;5091832;28;20040;-75
2021/12/15 06:10:11;;;;;;;30.55;13.85;;;;;;;-0.46;70.54;95461.63;5091642;28;20036;-75
2021/12/15 06:12:36;;;;;;;28.45;15.05;;;;;;;-0.25;69.68;95480.59;5077016;28;20042;-75
2021/12/15 06:15:02;;;;;;;29.33;14.95;;;;;;;-0.14;68.69;95485.38;5077430;28;20033;-75
2021/12/15 06:17:28;;;;;;;31.38;15.88;;;;;;;-0.16;70.16;95486.31;5062113;28;20078;-75
2021/12/15 06:19:53;;;;;;;33.13;17.42;;;;;;;-0.18;68.76;95471.00;5067703;28;20020;-75
2021/12/15 06:22:24;;;;;;;31.70;17.02;;;;;;;-0.07;69.06;95484.28;5072825;28;20044;-75
2021/12/15 06:24:50;;;;;;;32.10;15.40;;;;;;;-0.16;69.44;95487.13;5076936;28;20036;-75
2021/12/15 06:27:18;;;;;;;31.80;15.05;;;;;;;-0.13;69.51;95488.75;5093451;28;20029;-75
2021/12/15 06:29:45;;;;;;;33.90;16.73;;;;;;;-0.36;70.74;95480.06;5074789;28;20035;-75
2021/12/15 06:32:10;;;;;;;33.50;16.33;;;;;;;-0.35;70.74;95491.13;5057091;28;20036;-75
2021/12/15 06:34:36;;;;;;;33.40;16.50;;;;;;;-0.23;69.80;95485.63;5073852;28;20037;-75
2021/12/15 06:37:01;;;;;;;32.63;16.88;;;;;;;-0.30;70.08;95474.78;5078804;28;20029;-75
2021/12/15 06:39:27;;;;;;;32.65;16.48;;;;;;;-0.17;69.42;95480.34;5063322;28;20070;-75
2021/12/15 06:41:52;;;;;;;31.45;15.73;;;;;;;-0.14;69.00;95495.59;5075638;28;20030;-75
2021/12/15 06:44:17;;;;;;;26.52;14.70;;;;;;;-0.06;68.96;95497.88;5060511;28;20024;-77
2021/12/15 07:00:24;;;;;;;26.05;14.80;;;;;;;-0.19;69.57;95507.66;5087821;28;20117;-76
2021/12/15 07:02:49;;;;;;;35.88;17.13;;;;;;;-0.26;69.50;95501.88;5074941;28;20116;-77
2021/12/15 07:05:15;;;;;;;36.63;19.08;;;;;;;-0.18;70.01;95506.75;5073281;28;20028;-76
2021/12/15 07:07:42;;;;;;;33.15;15.05;;;;;;;-0.24;69.33;95504.41;5087624;28;20040;-79
2021/12/15 07:10:08;;;;;;;29.70;14.70;;;;;;;-0.16;69.24;95510.13;5093638;28;20028;-77
2021/12/15 07:12:34;;;;;;;32.05;15.98;;;;;;;-0.07;69.35;95514.13;5065482;28;20085;-77
2021/12/15 07:14:59;;;;;;;32.65;17.20;;;;;;;-0.06;68.86;95514.03;5086960;28;20444;-76
2021/12/15 07:17:25;;;;;;;32.15;16.02;;;;;;;-0.11;69.32;95515.06;5091502;28;20036;-77
2021/12/15 07:24:54;;;;;;;31.02;15.52;;;;;;;-0.17;69.66;95518.66;5087437;28;20031;-76
2021/12/15 07:27:19;;;;;;;30.05;15.73;;;;;;;-0.08;68.39;95520.13;5057220;28;20032;-76
2021/12/15 07:29:45;;;;;;;35.67;18.10;;;;;;;-0.08;68.97;95526.06;5088819;28;20035;-76
2021/12/15 07:32:10;;;;;;;31.17;17.60;;;;;;;-0.13;68.77;95534.72;5093003;28;20410;-75
2021/12/15 07:34:35;;;;;;;33.40;16.25;;;;;;;-0.01;68.43;95540.28;5090380;28;20028;-77
2021/12/15 07:37:01;;;;;;;26.77;13.75;;;;;;;-0.14;68.12;95541.56;5091692;28;20064;-76
2021/12/15 07:39:26;;;;;;;28.17;15.02;;;;;;;-0.23;69.68;95513.72;5068476;28;20044;-75
2021/12/15 07:42:02;;;;;;;28.85;14.27;;;;;;;0.00;69.58;95546.28;5081728;28;20040;-75
2021/12/15 07:44:27;;;;;;;33.20;16.10;;;;;;;-0.05;68.53;95536.19;5086418;28;20028;-76
2021/12/15 07:46:53;;;;;;;29.02;15.25;;;;;;;-0.09;68.40;95533.75;5090698;28;20063;-76
2021/12/15 07:49:19;;;;;;;33.85;16.98;;;;;;;-0.40;70.19;95544.03;5084677;28;20031;-77
2021/12/15 07:51:45;;;;;;;32.75;17.67;;;;;;;-0.43;70.48;95542.38;5069674;28;20486;-77
2021/12/15 07:54:11;;;;;;;28.35;14.60;;;;;;;-0.31;70.12;95543.75;5060259;28;20041;-77
2021/12/15 07:56:37;;;;;;;33.65;16.45;;;;;;;-0.17;69.62;95543.34;5068480;28;20132;-77
2021/12/15 07:59:02;;;;;;;30.17;16.23;;;;;;;-0.14;68.23;95553.47;5049026;28;20119;-77
2021/12/15 08:01:28;;;;;;;30.67;16.23;;;;;;;-0.12;68.52;95554.28;5083352;28;20098;-77
2021/12/15 08:03:55;;;;;;;26.45;14.75;;;;;;;-0.09;68.09;95564.41;5048558;28;20483;-77
2021/12/15 08:06:24;;;;;;;27.90;13.95;;;;;;;-0.05;68.03;95564.28;5074781;28;20028;-77
2021/12/15 08:08:50;;;;;;;29.10;15.02;;;;;;;-0.12;68.72;95564.50;5064585;28;20060;-77
2021/12/15 08:11:16;;;;;;;32.50;17.48;;;;;;;-0.19;68.84;95560.47;5060134;28;20020;-76
2021/12/15 08:13:41;;;;;;;27.50;14.63;;;;;;;-0.22;68.30;95558.84;5049086;28;20090;-77
2021/12/15 08:16:07;;;;;;;29.88;15.82;;;;;;;-0.13;69.17;95578.16;5065046;28;20099;-77
2021/12/15 08:18:32;;;;;;;27.58;15.32;;;;;;;-0.15;69.20;95565.41;5089044;28;20478;-77
2021/12/15 08:20:58;;;;;;;28.77;14.75;;;;;;;-0.07;68.46;95577.97;5068643;28;20029;-77
2021/12/15 08:23:23;;;;;;;27.38;13.05;;;;;;;-0.15;68.40;95578.19;5061355;28;20036;-76
2021/12/15 08:25:49;;;;;;;26.45;13.75;;;;;;;-0.07;68.18;95573.69;5071299;28;20042;-77
2021/12/15 08:28:14;;;;;;;28.70;15.50;;;;;;;-0.27;69.31;95578.56;5079584;28;20035;-77
2021/12/15 08:30:41;;;;;;;25.05;11.23;;;;;;;-0.20;69.03;95577.47;5053209;28;20399;-76
2021/12/15 08:33:08;;;;;;;21.52;11.00;;;;;;;-0.20;68.26;95579.19;5066761;28;20066;-77
2021/12/15 08:35:40;;;;;;;25.83;12.40;;;;;;;-0.36;70.14;95586.44;5086652;28;20024;-76
2021/12/15 08:38:06;;;;;;;24.25;12.63;;;;;;;-0.28;67.96;95592.19;5084808;28;20059;-77
2021/12/15 08:40:31;;;;;;;23.60;11.32;;;;;;;-0.31;68.72;95577.78;5088541;28;20554;-76
2021/12/15 08:42:57;;;;;;;21.88;11.80;;;;;;;-0.21;68.25;95601.34;5073120;28;20412;-76
2021/12/15 08:45:23;;;;;;;21.50;11.15;;;;;;;-0.35;69.03;95593.25;5089164;28;20032;-76
2021/12/15 08:47:50;;;;;;;22.95;12.50;;;;;;;-0.23;69.64;95603.09;5068779;28;20044;-76
2021/12/15 08:50:17;;;;;;;22.23;12.00;;;;;;;-0.27;68.63;95602.38;5087153;28;20028;-76
2021/12/15 08:52:42;;;;;;;26.05;13.57;;;;;;;-0.40;69.36;95595.09;5054531;28;20040;-76
2021/12/15 08:55:09;;;;;;;28.65;14.50;;;;;;;-0.48;69.80;95601.22;5087106;28;20057;-76
2021/12/15 08:57:35;;;;;;;26.00;13.02;;;;;;;-0.45;69.97;95597.75;5055505;28;20107;-76
2021/12/15 09:00:02;;;;;;;22.15;11.65;;;;;;;-0.42;70.17;95600.22;5062810;28;20055;-77
2021/12/15 09:02:28;;;;;;;27.98;14.32;;;;;;;-0.49;69.50;95591.91;5085712;28;20033;-77
2021/12/15 09:04:53;;;;;;;23.80;13.10;;;;;;;-0.33;68.83;95609.38;5072404;28;20028;-77
2021/12/15 09:07:19;;;;;;;19.45;10.43;;;;;;;-0.39;69.27;95606.97;5081106;28;20035;-77
2021/12/15 09:09:44;;;;;;;27.08;11.93;;;;;;;-0.39;68.95;95612.06;5060600;28;20077;-77
2021/12/15 09:12:10;;;;;;;20.58;10.52;;;;;;;-0.32;68.98;95605.94;5071397;28;20498;-77
2021/12/15 09:14:35;;;;;;;24.77;11.70;;;;;;;-0.26;68.94;95609.13;5071230;28;20078;-77
2021/12/15 09:17:01;;;;;;;22.40;11.05;;;;;;;-0.25;69.41;95605.72;5084965;28;20035;-77
2021/12/15 09:19:26;;;;;;;22.40;11.93;;;;;;;-0.25;69.35;95604.88;5072676;28;20032;-77
2021/12/15 09:21:52;;;;;;;22.75;11.48;;;;;;;-0.15;69.34;95608.84;5069880;28;20474;-77
2021/12/15 09:24:18;;;;;;;17.85;9.50;;;;;;;-0.11;68.15;95609.56;5090396;28;20024;-77
2021/12/15 09:26:43;;;;;;;21.70;10.88;;;;;;;-0.17;67.96;95613.13;5069811;28;20032;-77
2021/12/15 09:29:09;;;;;;;22.30;12.00;;;;;;;-0.09;68.78;95610.38;5090434;28;20039;-77
2021/12/15 09:31:34;;;;;;;20.42;10.70;;;;;;;-0.29;68.64;95608.38;5074856;28;20090;-77
2021/12/15 09:34:00;;;;;;;21.90;11.30;;;;;;;-0.18;68.71;95597.88;5065103;28;20020;-77
2021/12/15 09:36:26;;;;;;;42.90;19.10;;;;;;;-0.07;68.75;95598.41;5049438;28;20107;-76
2021/12/15 09:38:54;;;;;;;27.30;13.52;;;;;;;-0.16;69.42;95584.19;5065058;28;20112;-75
2021/12/15 09:41:19;;;;;;;24.60;12.25;;;;;;;-0.03;68.55;95587.22;5090780;28;20082;-76
2021/12/15 09:43:45;;;;;;;25.13;12.80;;;;;;;-0.01;68.63;95604.16;5059001;28;20048;-74
2021/12/15 09:46:34;;;;;;;24.73;11.65;;;;;;;-0.01;68.91;95600.78;5063240;28;20032;-76
2021/12/15 10:19:20;;;;;;;30.70;17.98;;;;;;;0.04;68.75;95580.22;5093646;28;20077;-75
2021/12/15 10:22:01;;;;;;;35.90;18.25;;;;;;;-0.02;69.23;95571.84;5076625;28;20043;-75
2021/12/15 10:24:32;;;;;;;37.33;19.05;;;;;;;-0.01;69.52;95576.06;5094740;28;20055;-75
2021/12/15 10:26:58;;;;;;;26.25;14.77;;;;;;;0.09;68.47;95579.19;5060052;28;20032;-78
2021/12/15 10:29:24;;;;;;;28.85;16.35;;;;;;;0.11;69.16;95574.03;5093496;28;20417;-78
2021/12/15 10:32:00;;;;;;;23.30;13.05;;;;;;;-0.03;68.95;95562.53;5076468;28;20505;-75
2021/12/15 10:34:26;;;;;;;23.13;12.73;;;;;;;0.01;69.28;95570.09;5093223;28;20121;-76
2021/12/15 10:36:51;;;;;;;27.77;14.20;;;;;;;0.05;68.81;95576.78;5076687;28;20659;-76
2021/12/15 10:39:17;;;;;;;24.30;15.02;;;;;;;0.07;69.11;95567.34;5076860;28;20057;-76
2021/12/15 10:41:43;;;;;;;26.55;17.02;;;;;;;0.13;68.77;95564.59;5093297;28;20032;-76
2021/12/15 10:44:13;;;;;;;28.88;16.95;;;;;;;0.24;68.66;95554.88;5094245;28;20028;-75
2021/12/15 10:46:42;;;;;;;30.80;18.38;;;;;;;0.27;68.13;95566.75;5060066;28;20032;-76
2021/12/15 10:49:11;;;;;;;27.58;15.45;;;;;;;0.25;67.75;95568.50;5076324;28;20035;-76
2021/12/15 10:51:57;;;;;;;25.98;14.32;;;;;;;0.32;68.64;95567.44;5093804;28;20040;-76
2021/12/15 10:54:46;;;;;;;28.02;16.42;;;;;;;0.26;69.10;95559.97;5093095;28;20035;-76
2021/12/15 10:57:20;;;;;;;23.25;13.50;;;;;;;0.30;67.99;95564.91;5093008;28;20134;-76
2021/12/15 10:59:48;;;;;;;27.38;15.98;;;;;;;0.28;68.47;95574.38;5076717;28;20329;-76
2021/12/15 11:02:19;;;;;;;31.27;17.13;;;;;;;0.27;68.36;95575.25;5076203;28;20108;-76
2021/12/15 11:04:48;;;;;;;29.23;14.93;;;;;;;0.25;69.08;95569.31;5076800;28;20424;-76
2021/12/15 11:07:33;;;;;;;22.80;13.07;;;;;;;0.23;67.99;95560.91;5093014;28;20066;-76
2021/12/15 11:10:06;;;;;;;23.13;13.65;;;;;;;0.16;68.63;95544.06;5075762;28;20516;-76
2021/12/15 11:12:37;;;;;;;26.58;15.07;;;;;;;0.28;68.14;95561.59;5092644;28;20477;-75
2021/12/15 11:15:10;;;;;;;;;;;;;;;0.34;68.31;95550.34;5094364;28;20039;-76
2021/12/15 11:17:40;;;;;;;32.35;19.58;;;;;;;0.33;68.22;95552.03;5092643;28;19920;-80
2021/12/15 11:20:07;;;;;;;30.55;18.08;;;;;;;0.32;68.70;95549.56;5092917;28;20115;-82
2021/12/15 11:23:08;;;;;;;35.65;20.15;;;;;;;0.36;68.96;95557.09;5092623;28;20410;-82
2021/12/15 11:25:37;;;;;;;37.05;19.25;;;;;;;0.36;68.98;95554.53;5093372;28;20511;-82
2021/12/15 11:28:12;;;;;;;30.48;16.10;;;;;;;0.40;68.87;95550.16;5094055;28;20032;-81
2021/12/15 11:30:43;;;;;;;31.60;16.33;;;;;;;0.41;69.04;95555.19;5093490;28;20068;-82
2021/12/15 11:33:26;;;;;;;28.50;17.08;;;;;;;0.45;68.75;95555.97;5092496;28;20032;-81
2021/12/15 11:35:57;;;;;;;28.42;14.60;;;;;;;0.43;68.57;95561.09;5092233;28;20119;-81
2021/12/15 11:38:27;;;;;;;;;;;;;;;0.53;68.30;95563.38;5094255;28;20063;-81
2021/12/15 11:41:08;;;;;;;34.17;18.13;;;;;;;0.42;69.27;95556.06;5075333;28;19912;-81
2021/12/15 11:43:36;;;;;;;32.53;16.30;;;;;;;0.38;68.82;95562.97;5092295;28;20036;-81
2021/12/15 11:46:12;;;;;;;36.10;17.90;;;;;;;0.42;68.66;95558.63;5092006;28;20406;-81
2021/12/15 11:48:39;;;;;;;50.25;24.42;;;;;;;0.40;68.87;95556.09;5076488;28;20036;-81
2021/12/15 11:51:06;;;;;;;38.67;19.92;;;;;;;0.36;69.17;95557.09;5092871;28;20035;-81
2021/12/15 11:53:32;;;;;;;28.75;16.80;;;;;;;0.34;69.26;95552.91;5075148;28;20066;-81
2021/12/15 11:56:21;;;;;;;32.05;16.42;;;;;;;0.40;70.07;95556.09;5093046;28;20071;-81
2021/12/15 11:58:48;;;;;;;31.13;17.55;;;;;;;0.34;70.24;95556.28;5092032;28;20036;-81
2021/12/15 12:01:43;;;;;;;35.95;18.95;;;;;;;0.43;70.05;95560.28;5091691;28;20100;-81
2021/12/15 12:04:15;;;;;;;34.92;18.33;;;;;;;0.40;69.23;95552.72;5090949;28;20031;-81
2021/12/15 12:06:40;;;;;;;38.28;20.88;;;;;;;0.39;69.52;95551.00;5091626;28;20052;-81
2021/12/15 12:09:06;;;;;;;31.70;17.30;;;;;;;0.44;69.39;95555.09;5058011;28;20413;-82
2021/12/15 12:11:34;;;;;;;35.28;19.70;;;;;;;0.43;69.55;95540.66;5074557;28;20036;-82
2021/12/15 12:14:00;;;;;;;31.67;17.25;;;;;;;0.44;68.88;95544.88;5091897;28;20028;-81
2021/12/15 12:16:26;;;;;;;34.75;19.48;;;;;;;0.48;69.94;95560.13;5074879;28;20116;-81
2021/12/15 12:18:52;;;;;;;34.53;20.75;;;;;;;0.41;69.43;95552.63;5091264;28;20032;-80
2021/12/15 12:21:17;;;;;;;38.75;21.17;;;;;;;0.36;70.08;95548.56;5074568;28;20024;-81
2021/12/15 12:23:45;;;;;;;40.28;21.90;;;;;;;0.38;69.30;95547.63;5074593;28;20024;-82
2021/12/15 12:26:11;;;;;;;32.40;19.88;;;;;;;0.40;69.61;95553.53;5074866;28;20247;-81
2021/12/15 12:28:39;;;;;;;47.35;22.83;;;;;;;0.37;69.98;95548.53;5057570;28;20035;-80
2021/12/15 12:31:11;;;;;;;52.58;28.92;;;;;;;0.32;69.80;95535.03;5091222;28;20107;-82
2021/12/15 12:33:37;;;;;;;49.90;23.83;;;;;;;0.32;70.18;95549.56;5074544;28;20089;-82
2021/12/15 12:36:09;;;;;;;35.63;20.17;;;;;;;0.25;69.99;95538.66;5074282;28;20448;-82
2021/12/15 12:38:36;;;;;;;38.30;22.48;;;;;;;0.21;70.33;95544.75;5091260;28;20028;-81
2021/12/15 12:41:02;;;;;;;40.92;24.20;;;;;;;0.31;69.87;95547.88;5074135;28;20035;-82